sensor_id;sensor_type;location;lat;lon;timestamp;temperature;humidity
21015;DHT22;19207;-23.482;-46.500;2022-11-20T18:34:08;17.60;99.90
21015;DHT22;19207;-23.482;-46.500;2022-11-20T18:36:57;17.80;99.90
21015;DHT22;19207;-23.482;-46.500;2022-11-20T18:39:44;17.90;99.90
21015;DHT22;19207;-23.482;-46.500;2022-11-20T18:42:30;18.60;99.90
21015;DHT22;19207;-23.482;-46.500;2022-11-20T18:45:35;18.70;99.90
21015;DHT22;19207;-23.482;-46.500;2022-11-20T18:48:22;18.60;99.90
21015;DHT22;19207;-23.482;-46.500;2022-11-20T18:51:09;18.90;99.90
21015;DHT22;19207;-23.482;-46.500;2022-11-20T18:53:57;19.00;99.90
21015;DHT22;19207;-23.482;-46.500;2022-11-20T18:56:44;18.80;99.90
21015;DHT22;19207;-23.482;-46.500;2022-11-20T18:59:30;19.20;99.90
21015;DHT22;19207;-23.482;-46.500;2022-11-20T19:02:18;19.30;99.90
21015;DHT22;19207;-23.482;-46.500;2022-11-20T19:05:05;19.30;99.90
21015;DHT22;19207;-23.482;-46.500;2022-11-20T19:07:52;19.50;99.90
21015;DHT22;19207;-23.482;-46.500;2022-11-20T19:10:39;19.60;99.90
21015;DHT22;19207;-23.482;-46.500;2022-11-20T19:13:26;19.60;99.90
21015;DHT22;19207;-23.482;-46.500;2022-11-20T19:16:18;19.90;99.90
21015;DHT22;19207;-23.482;-46.500;2022-11-20T19:19:07;19.70;99.90
21015;DHT22;19207;-23.482;-46.500;2022-11-20T19:21:53;19.40;99.90
21015;DHT22;19207;-23.482;-46.500;2022-11-20T19:24:40;19.60;99.90
21015;DHT22;19207;-23.482;-46.500;2022-11-20T19:27:27;19.80;99.90
21015;DHT22;19207;-23.482;-46.500;2022-11-20T19:33:12;19.20;99.90
21015;DHT22;19207;-23.482;-46.500;2022-11-20T19:36:32;19.50;99.90
21015;DHT22;19207;-23.482;-46.500;2022-11-20T19:39:18;19.50;99.90
21015;DHT22;19207;-23.482;-46.500;2022-11-20T19:42:06;19.40;99.90
21015;DHT22;19207;-23.482;-46.500;2022-11-20T19:44:53;19.30;99.90
21015;DHT22;19207;-23.482;-46.500;2022-11-20T19:47:40;19.50;99.90
21015;DHT22;19207;-23.482;-46.500;2022-11-20T19:50:26;19.80;99.90
21015;DHT22;19207;-23.482;-46.500;2022-11-20T19:53:13;20.20;99.90
21015;DHT22;19207;-23.482;-46.500;2022-11-20T19:56:00;20.20;99.90
21015;DHT22;19207;-23.482;-46.500;2022-11-20T19:58:47;20.20;99.90
21015;DHT22;19207;-23.482;-46.500;2022-11-20T20:01:33;20.10;99.90
21015;DHT22;19207;-23.482;-46.500;2022-11-20T20:04:21;19.80;99.90
21015;DHT22;19207;-23.482;-46.500;2022-11-20T20:07:08;19.50;99.90
21015;DHT22;19207;-23.482;-46.500;2022-11-20T20:09:54;19.40;99.90
21015;DHT22;19207;-23.482;-46.500;2022-11-20T20:12:42;19.40;99.90
21015;DHT22;19207;-23.482;-46.500;2022-11-20T20:15:29;19.50;99.90
21015;DHT22;19207;-23.482;-46.500;2022-11-20T20:18:15;19.30;99.90
21015;DHT22;19207;-23.482;-46.500;2022-11-20T20:21:03;19.00;99.90
21015;DHT22;19207;-23.482;-46.500;2022-11-20T20:23:52;18.80;99.90
21015;DHT22;19207;-23.482;-46.500;2022-11-20T20:26:39;19.00;99.90
21015;DHT22;19207;-23.482;-46.500;2022-11-20T20:29:26;19.00;99.90
21015;DHT22;19207;-23.482;-46.500;2022-11-20T20:32:12;19.30;99.90
21015;DHT22;19207;-23.482;-46.500;2022-11-20T20:34:59;18.80;99.90
21015;DHT22;19207;-23.482;-46.500;2022-11-20T20:37:46;18.80;99.90
21015;DHT22;19207;-23.482;-46.500;2022-11-20T20:40:32;18.90;99.90
21015;DHT22;19207;-23.482;-46.500;2022-11-20T20:43:19;19.00;99.90
21015;DHT22;19207;-23.482;-46.500;2022-11-20T20:46:07;19.10;99.90
21015;DHT22;19207;-23.482;-46.500;2022-11-20T20:48:53;19.10;99.90
21015;DHT22;19207;-23.482;-46.500;2022-11-20T20:51:40;18.90;99.90
21015;DHT22;19207;-23.482;-46.500;2022-11-20T20:54:26;18.80;99.90
21015;DHT22;19207;-23.482;-46.500;2022-11-20T20:57:13;18.90;99.90
21015;DHT22;19207;-23.482;-46.500;2022-11-20T21:00:00;19.10;99.90
21015;DHT22;19207;-23.482;-46.500;2022-11-20T21:02:47;18.70;99.90
21015;DHT22;19207;-23.482;-46.500;2022-11-20T21:05:34;18.60;99.90
21015;DHT22;19207;-23.482;-46.500;2022-11-20T21:08:20;18.70;99.90
21015;DHT22;19207;-23.482;-46.500;2022-11-20T21:11:10;18.90;99.90
21015;DHT22;19207;-23.482;-46.500;2022-11-20T21:13:57;18.70;99.90
21015;DHT22;19207;-23.482;-46.500;2022-11-20T21:16:44;18.60;99.90
21015;DHT22;19207;-23.482;-46.500;2022-11-20T21:19:31;19.20;99.90
21015;DHT22;19207;-23.482;-46.500;2022-11-20T21:22:18;18.90;99.90
21015;DHT22;19207;-23.482;-46.500;2022-11-20T21:25:05;18.90;99.90
21015;DHT22;19207;-23.482;-46.500;2022-11-20T21:27:52;18.80;99.90
21015;DHT22;19207;-23.482;-46.500;2022-11-20T21:30:39;18.80;99.90
21015;DHT22;19207;-23.482;-46.500;2022-11-20T21:33:26;18.40;99.90
21015;DHT22;19207;-23.482;-46.500;2022-11-20T21:36:15;18.40;99.90
21015;DHT22;19207;-23.482;-46.500;2022-11-20T21:39:02;18.40;99.90
21015;DHT22;19207;-23.482;-46.500;2022-11-20T21:41:49;18.50;99.90
21015;DHT22;19207;-23.482;-46.500;2022-11-20T21:44:36;18.50;99.90
21015;DHT22;19207;-23.482;-46.500;2022-11-20T21:47:23;18.70;99.90
21015;DHT22;19207;-23.482;-46.500;2022-11-20T21:50:10;18.80;99.90
21015;DHT22;19207;-23.482;-46.500;2022-11-20T21:52:57;18.50;99.90
21015;DHT22;19207;-23.482;-46.500;2022-11-20T21:55:51;18.60;99.90
21015;DHT22;19207;-23.482;-46.500;2022-11-20T21:58:39;18.70;99.90
21015;DHT22;19207;-23.482;-46.500;2022-11-20T22:01:28;18.70;99.90
21015;DHT22;19207;-23.482;-46.500;2022-11-20T22:04:15;18.80;99.90
21015;DHT22;19207;-23.482;-46.500;2022-11-20T22:07:01;18.80;99.90
21015;DHT22;19207;-23.482;-46.500;2022-11-20T22:09:48;18.80;99.90
21015;DHT22;19207;-23.482;-46.500;2022-11-20T22:12:35;18.80;99.90
21015;DHT22;19207;-23.482;-46.500;2022-11-20T22:15:22;18.80;99.90
21015;DHT22;19207;-23.482;-46.500;2022-11-20T22:18:09;18.70;99.90
21015;DHT22;19207;-23.482;-46.500;2022-11-20T22:21:03;18.60;99.90
21015;DHT22;19207;-23.482;-46.500;2022-11-20T22:23:50;18.60;99.90
21015;DHT22;19207;-23.482;-46.500;2022-11-20T22:26:37;18.60;99.90
21015;DHT22;19207;-23.482;-46.500;2022-11-20T22:29:24;18.70;99.90
21015;DHT22;19207;-23.482;-46.500;2022-11-20T22:32:11;18.70;99.90
21015;DHT22;19207;-23.482;-46.500;2022-11-20T22:34:58;18.70;99.90
21015;DHT22;19207;-23.482;-46.500;2022-11-20T22:37:48;18.70;99.90
21015;DHT22;19207;-23.482;-46.500;2022-11-20T22:40:34;18.70;99.90
21015;DHT22;19207;-23.482;-46.500;2022-11-20T22:43:22;18.80;99.90
21015;DHT22;19207;-23.482;-46.500;2022-11-20T22:49:02;18.80;99.90
21015;DHT22;19207;-23.482;-46.500;2022-11-20T22:51:49;18.80;99.90
21015;DHT22;19207;-23.482;-46.500;2022-11-20T22:54:36;18.80;99.90
21015;DHT22;19207;-23.482;-46.500;2022-11-20T22:57:22;18.80;99.90
21015;DHT22;19207;-23.482;-46.500;2022-11-20T23:00:10;19.20;99.90
21015;DHT22;19207;-23.482;-46.500;2022-11-20T23:02:57;18.80;99.90
21015;DHT22;19207;-23.482;-46.500;2022-11-20T23:05:44;18.80;99.90
21015;DHT22;19207;-23.482;-46.500;2022-11-20T23:08:31;18.90;99.90
21015;DHT22;19207;-23.482;-46.500;2022-11-20T23:11:23;18.90;99.90
21015;DHT22;19207;-23.482;-46.500;2022-11-20T23:14:13;18.90;99.90
21015;DHT22;19207;-23.482;-46.500;2022-11-20T23:17:00;18.90;99.90
21015;DHT22;19207;-23.482;-46.500;2022-11-20T23:19:47;18.90;99.90
21015;DHT22;19207;-23.482;-46.500;2022-11-20T23:22:34;19.00;99.90
21015;DHT22;19207;-23.482;-46.500;2022-11-20T23:25:20;19.30;99.90
21015;DHT22;19207;-23.482;-46.500;2022-11-20T23:28:07;19.20;99.90
21015;DHT22;19207;-23.482;-46.500;2022-11-20T23:30:54;19.30;99.90
21015;DHT22;19207;-23.482;-46.500;2022-11-20T23:33:43;19.10;99.90
21015;DHT22;19207;-23.482;-46.500;2022-11-20T23:36:49;19.10;99.90
21015;DHT22;19207;-23.482;-46.500;2022-11-20T23:39:35;18.90;99.90
21015;DHT22;19207;-23.482;-46.500;2022-11-20T23:42:22;18.90;99.90
21015;DHT22;19207;-23.482;-46.500;2022-11-20T23:45:09;18.90;99.90
21015;DHT22;19207;-23.482;-46.500;2022-11-20T23:47:56;19.00;99.90
21015;DHT22;19207;-23.482;-46.500;2022-11-20T23:50:43;18.90;99.90
21015;DHT22;19207;-23.482;-46.500;2022-11-20T23:53:31;19.00;99.90
21015;DHT22;19207;-23.482;-46.500;2022-11-20T23:56:18;18.90;99.90
21015;DHT22;19207;-23.482;-46.500;2022-11-20T23:59:07;19.00;99.90
